Jerrys Plains, New South Wales

12:41 AM AEDT on November 28, 2014 (GMT +1100)
Muswellbrook | Change Station
CLOSE
Current Station
Personal Weather Station
Location: Muswellbrook, NSW
Elevation: 522 ft
Nearby Weather Stations

Elev 522 ft 32.28 °S, 150.89 °E | Updated 1 minute ago

Partly Cloudy
Partly Cloudy
62.6 °F
Feels Like 62.6 °F
N
9.4
Wind Variable Wind from East
Gusts 15.4 mph

Today
High -- | Low -- °F
--% Chance of Precip.
Yesterday
High -- | Low -- °F
Precip. -- in
5:42 AM 7:46 PM
Waxing Crescent, 29% visible
Pressure 30.21 in
Visibility 6.2 miles
Clouds
Dew Point 54 °F
Humidity 74%
Rainfall 0.00 in
Snow Depth Not available.
UV Not available.
Pollen Not available.
Air Quality Not available.
Flu Activity Not available.
METAR YWLM 271330Z AUTO 13008KT 9999 // ////// 19/14 Q1023

More Conditions Fewer Conditions

Pressure 30.21 in
Visibility 6.2 miles
Clouds
Dew Point 54 °F
Humidity 74%
Rainfall 0.00 in
Snow Depth Not available.
UV Not available.
Pollen Not available.
Air Quality Not available.
Flu Activity Not available.
METAR YWLM 271330Z AUTO 13008KT 9999 // ////// 19/14 Q1023

More Conditions Fewer Conditions

10-Day Weather Forecast

Almanac

Astronomy

Nov. 28, 2014 Rise Set
Actual Time
Civil Twilight
Nautical Twilight
Astronomical Twilight
Moon
Length of Visible Light
Length of Day
Tomorrow will be .
, % of the Moon is Illuminated

Today's Extremes

Country Highs Country Lows

Community

WunderPhotos

Upload Photos

1,774,003 photos uploaded!

WunderBlogs® & News

Nearby

Air Quality

  Air Quality AQ Index Pollutant
Not available.

Snow Depth

Station Depth Elevation

Earthquake Activity

City Distance Mag. Time & Date
Minimum magnitude displayed is 2.5.

Coastal Water Temperatures

Place Temperature

Nearby Weather Stations